Time;durP1;ratioP1;P1;durP2;ratioP2;P2;SDS_P1;SDS_P2;PMS_P1;PMS_P2;Temp;Humidity;BMP_temperature;BMP_pressure;BME280_temperature;BME280_humidity;BME280_pressure;Samples;Min_cycle;Max_cycle;Signal;HPM_P1;HPM_P2
2023/01/21 00:02:19;;;;;;;31.30;11.88;;;;;;;;;;4921260;28;20053;-72
2023/01/21 00:04:46;;;;;;;30.70;11.98;;;;;;;;;;4924955;28;20176;-71
2023/01/21 00:07:17;;;;;;;30.88;12.15;;;;;;;;;;4946640;28;20059;-72
2023/01/21 00:09:48;;;;;;;32.25;11.77;;;;;;;;;;4908277;28;20055;-71
2023/01/21 00:12:16;;;;;;;30.83;11.52;;;;;;;;;;4924916;28;20354;-70
2023/01/21 00:14:42;;;;;;;32.15;11.80;;;;;;;;;;4954882;28;20050;-71
2023/01/21 00:17:15;;;;;;;35.70;12.73;;;;;;;;;;4926295;28;20145;-70
2023/01/21 00:19:42;;;;;;;33.60;11.88;;;;;;;;;;4913020;28;20141;-72
2023/01/21 00:22:09;;;;;;;34.15;12.32;;;;;;;;;;4914446;28;20055;-72
2023/01/21 00:24:50;;;;;;;30.98;11.80;;;;;;;;;;4930034;28;20062;-71
2023/01/21 00:27:38;;;;;;;32.17;11.73;;;;;;;;;;4905558;28;20063;-70
2023/01/21 01:16:03;;;;;;;25.02;9.45;;;;;;;;;;6123139;22;1456934;-74
2023/01/21 01:18:34;;;;;;;31.10;11.25;;;;;;;;;;6066126;23;20029;-72
2023/01/21 01:21:02;;;;;;;27.35;11.52;;;;;;;;;;6104600;23;20055;-73
2023/01/21 01:23:29;;;;;;;34.90;11.70;;;;;;;;;;6062930;23;20021;-73
2023/01/21 01:25:59;;;;;;;27.48;11.40;;;;;;;;;;6095797;23;20025;-73
2023/01/21 01:28:25;;;;;;;35.08;10.98;;;;;;;;;;6086777;23;20025;-75
2023/01/21 01:30:52;;;;;;;27.73;10.90;;;;;;;;;;6053921;23;20104;-71
2023/01/21 01:33:21;;;;;;;27.52;10.82;;;;;;;;;;5959287;23;20035;-76
2023/01/21 01:35:48;;;;;;;24.45;10.52;;;;;;;;;;6006435;23;20104;-72
2023/01/21 01:38:18;;;;;;;30.73;11.05;;;;;;;;;;6049230;23;20084;-73
2023/01/21 01:40:46;;;;;;;25.80;10.23;;;;;;;;;;6125138;23;20027;-72
2023/01/21 01:43:40;;;;;;;29.23;11.05;;;;;;;;;;6063525;23;20028;-76
2023/01/21 01:46:06;;;;;;;25.77;10.05;;;;;;;;;;6123751;23;20024;-74
2023/01/21 01:48:35;;;;;;;28.95;10.90;;;;;;;;;;6146528;23;20024;-73
2023/01/21 01:51:06;;;;;;;26.88;10.68;;;;;;;;;;6145642;23;20024;-75
2023/01/21 01:53:33;;;;;;;23.80;9.82;;;;;;;;;;6079983;23;20021;-74
2023/01/21 01:56:00;;;;;;;34.55;11.98;;;;;;;;;;6155962;23;20025;-72
2023/01/21 01:58:28;;;;;;;28.52;11.38;;;;;;;;;;6132063;23;20025;-75
2023/01/21 02:00:55;;;;;;;25.95;10.15;;;;;;;;;;6133537;23;20020;-73
2023/01/21 02:06:08;;;;;;;32.05;11.65;;;;;;;;;;6169905;23;20028;-73
2023/01/21 02:08:35;;;;;;;29.23;11.15;;;;;;;;;;6144772;23;20025;-75
2023/01/21 02:11:02;;;;;;;27.52;10.40;;;;;;;;;;6146349;23;20036;-73
2023/01/21 02:13:30;;;;;;;28.60;10.23;;;;;;;;;;6130094;23;20036;-74
2023/01/21 02:16:03;;;;;;;29.70;10.93;;;;;;;;;;6165068;23;20032;-72
2023/01/21 02:18:36;;;;;;;31.05;11.35;;;;;;;;;;6165194;23;20024;-74
2023/01/21 02:21:20;;;;;;;25.42;9.38;;;;;;;;;;6168159;23;20032;-76
2023/01/21 02:24:08;;;;;;;26.73;10.38;;;;;;;;;;6147245;23;20020;-75
2023/01/21 02:27:08;;;;;;;25.95;10.57;;;;;;;;;;6170161;23;20035;-74
2023/01/21 02:29:51;;;;;;;23.25;10.07;;;;;;;;;;6130152;23;20020;-76
2023/01/21 02:32:41;;;;;;;29.00;10.23;;;;;;;;;;6136167;23;20032;-75
2023/01/21 02:35:13;;;;;;;27.45;10.27;;;;;;;;;;6116168;23;20024;-72
2023/01/21 02:37:42;;;;;;;30.75;9.68;;;;;;;;;;6162261;23;20057;-72
2023/01/21 02:40:13;;;;;;;33.72;11.23;;;;;;;;;;6139694;23;20021;-72
2023/01/21 02:42:43;;;;;;;25.50;10.40;;;;;;;;;;6163932;23;20028;-71
2023/01/21 02:45:15;;;;;;;24.58;9.95;;;;;;;;;;6157547;23;20052;-71
2023/01/21 02:47:48;;;;;;;27.52;9.60;;;;;;;;;;6159076;23;20060;-73
2023/01/21 02:50:19;;;;;;;28.83;10.05;;;;;;;;;;6140372;23;20025;-74
2023/01/21 02:52:45;;;;;;;29.50;10.10;;;;;;;;;;6164765;23;20031;-75
2023/01/21 02:55:14;;;;;;;27.52;10.02;;;;;;;;;;6157836;23;20052;-75
2023/01/21 02:57:42;;;;;;;28.35;10.85;;;;;;;;;;6133850;23;20091;-75
2023/01/21 03:00:11;;;;;;;26.30;10.02;;;;;;;;;;6145166;23;20048;-74
2023/01/21 03:02:38;;;;;;;;;;;;;;;;;;6118156;23;20040;-76
2023/01/21 03:05:10;;;;;;;22.98;8.75;;;;;;;;;;6155076;22;20026;-75
2023/01/21 03:07:41;;;;;;;28.83;9.93;;;;;;;;;;6193875;22;20024;-74
2023/01/21 03:10:11;;;;;;;24.58;9.50;;;;;;;;;;6192985;23;20028;-73
2023/01/21 03:12:41;;;;;;;29.15;10.93;;;;;;;;;;6186193;23;20088;-71
2023/01/21 03:17:58;;;;;;;26.88;9.40;;;;;;;;;;6166197;23;20124;-73
2023/01/21 03:20:26;;;;;;;22.27;9.10;;;;;;;;;;6194235;23;20029;-73
2023/01/21 03:22:57;;;;;;;33.55;10.45;;;;;;;;;;6182106;23;20024;-75
2023/01/21 03:25:25;;;;;;;28.35;10.15;;;;;;;;;;6167535;23;20024;-73
2023/01/21 03:27:52;;;;;;;25.75;9.60;;;;;;;;;;6162512;23;20020;-72
2023/01/21 03:30:21;;;;;;;30.08;9.85;;;;;;;;;;6168047;23;20052;-76
2023/01/21 03:32:49;;;;;;;21.95;9.70;;;;;;;;;;6159988;23;20032;-74
2023/01/21 03:35:23;;;;;;;26.05;10.45;;;;;;;;;;6186800;23;20025;-76
2023/01/21 03:37:52;;;;;;;26.67;10.10;;;;;;;;;;6191346;23;20028;-74
2023/01/21 03:40:24;;;;;;;28.67;10.50;;;;;;;;;;6166944;23;20039;-76
2023/01/21 03:42:52;;;;;;;24.95;9.60;;;;;;;;;;6159228;23;20020;-74
2023/01/21 03:45:21;;;;;;;29.73;10.07;;;;;;;;;;6217681;23;20080;-74
2023/01/21 03:47:51;;;;;;;24.27;9.23;;;;;;;;;;6189492;23;20024;-75
2023/01/21 03:50:19;;;;;;;26.88;10.25;;;;;;;;;;6192690;23;20038;-74
2023/01/21 03:52:46;;;;;;;23.75;10.15;;;;;;;;;;6161381;23;20024;-72
2023/01/21 03:55:14;;;;;;;30.70;9.60;;;;;;;;;;6147111;22;20109;-73
2023/01/21 03:57:42;;;;;;;29.67;9.98;;;;;;;;;;6164937;23;20025;-72
2023/01/21 04:00:10;;;;;;;29.00;10.00;;;;;;;;;;6168595;23;20020;-77
2023/01/21 04:02:37;;;;;;;24.95;8.98;;;;;;;;;;6187695;23;20463;-75
2023/01/21 04:05:04;;;;;;;25.17;9.50;;;;;;;;;;6153977;22;20036;-79
2023/01/21 04:07:31;;;;;;;28.17;10.68;;;;;;;;;;6216245;22;20021;-74
2023/01/21 04:09:57;;;;;;;30.52;10.13;;;;;;;;;;6193598;23;20025;-75
2023/01/21 04:12:24;;;;;;;28.67;10.82;;;;;;;;;;6168429;23;20051;-76
2023/01/21 04:14:53;;;;;;;25.95;9.80;;;;;;;;;;6147020;23;20047;-80
2023/01/21 04:17:19;;;;;;;;;;;;;;;;;;6187917;23;20024;-75
2023/01/21 04:19:46;;;;;;;21.65;8.98;;;;;;;;;;6165413;23;19961;-78
2023/01/21 04:22:13;;;;;;;22.33;8.77;;;;;;;;;;6192589;23;20028;-76
2023/01/21 04:24:39;;;;;;;29.65;10.35;;;;;;;;;;6184032;22;20020;-79
2023/01/21 04:27:06;;;;;;;29.50;10.45;;;;;;;;;;6158902;22;20029;-75
2023/01/21 04:29:34;;;;;;;26.08;10.07;;;;;;;;;;6189695;23;20038;-73
2023/01/21 04:32:03;;;;;;;33.97;11.13;;;;;;;;;;6168507;23;20055;-77
2023/01/21 04:34:30;;;;;;;24.45;9.50;;;;;;;;;;6157953;23;20024;-83
2023/01/21 04:36:56;;;;;;;27.88;9.98;;;;;;;;;;6183828;23;20024;-74
2023/01/21 04:39:23;;;;;;;26.52;9.50;;;;;;;;;;6165302;23;20035;-76
2023/01/21 04:41:50;;;;;;;36.22;11.02;;;;;;;;;;6167616;23;20028;-76
2023/01/21 04:44:16;;;;;;;26.10;10.25;;;;;;;;;;6148137;23;20025;-81
2023/01/21 04:46:43;;;;;;;25.85;9.45;;;;;;;;;;6167097;23;20029;-74
2023/01/21 04:49:12;;;;;;;26.23;9.50;;;;;;;;;;6157375;23;20321;-76
2023/01/21 04:51:39;;;;;;;29.25;10.30;;;;;;;;;;6168368;23;20047;-77
2023/01/21 04:54:05;;;;;;;26.10;9.77;;;;;;;;;;6163302;23;20048;-77
2023/01/21 04:56:32;;;;;;;28.30;11.20;;;;;;;;;;6190226;23;20020;-78
2023/01/21 04:58:59;;;;;;;27.00;9.95;;;;;;;;;;6158622;23;20081;-80
2023/01/21 05:01:26;;;;;;;28.95;10.82;;;;;;;;;;6165050;23;20039;-77
2023/01/21 05:03:53;;;;;;;27.95;10.18;;;;;;;;;;6147427;23;20107;-77
2023/01/21 05:06:21;;;;;;;29.75;9.60;;;;;;;;;;6166364;23;20059;-82
2023/01/21 05:08:50;;;;;;;26.08;9.68;;;;;;;;;;6189888;23;20021;-79
2023/01/21 05:11:18;;;;;;;28.25;10.23;;;;;;;;;;6214772;23;20096;-80
2023/01/21 05:13:45;;;;;;;28.02;10.60;;;;;;;;;;6189254;23;20048;-79
2023/01/21 05:16:13;;;;;;;24.77;9.35;;;;;;;;;;6165942;23;20029;-83
2023/01/21 05:18:40;;;;;;;28.58;10.15;;;;;;;;;;6192456;23;20047;-81
2023/01/21 05:21:07;;;;;;;27.60;9.68;;;;;;;;;;6184103;22;20204;-76
2023/01/21 05:23:36;;;;;;;27.05;10.07;;;;;;;;;;6195613;23;20033;-83
2023/01/21 05:26:02;;;;;;;27.92;10.27;;;;;;;;;;6191010;23;20035;-78
2023/01/21 05:28:29;;;;;;;26.00;10.13;;;;;;;;;;6168255;23;20029;-76
2023/01/21 05:31:00;;;;;;;28.25;10.38;;;;;;;;;;6162619;23;20024;-73
2023/01/21 05:33:29;;;;;;;29.42;9.35;;;;;;;;;;6146913;23;20044;-79
2023/01/21 05:35:56;;;;;;;28.58;10.85;;;;;;;;;;6179100;23;20024;-78
2023/01/21 05:38:23;;;;;;;27.73;9.57;;;;;;;;;;6156125;23;20048;-80
2023/01/21 05:40:55;;;;;;;29.23;10.55;;;;;;;;;;6189196;23;20089;-75
2023/01/21 05:43:22;;;;;;;30.40;10.73;;;;;;;;;;6150055;23;20059;-73
2023/01/21 05:45:49;;;;;;;31.38;10.70;;;;;;;;;;6167958;23;20024;-76
2023/01/21 05:48:16;;;;;;;30.70;9.82;;;;;;;;;;6165477;23;20104;-78
2023/01/21 05:50:42;;;;;;;27.85;10.90;;;;;;;;;;6174484;23;20055;-77
2023/01/21 05:53:09;;;;;;;26.90;9.90;;;;;;;;;;6153103;22;20040;-75
2023/01/21 05:55:36;;;;;;;31.33;11.10;;;;;;;;;;6194724;23;20024;-75
2023/01/21 05:58:05;;;;;;;32.47;10.52;;;;;;;;;;6166067;23;20070;-75
2023/01/21 06:00:32;;;;;;;28.75;10.27;;;;;;;;;;6181269;23;20040;-73
2023/01/21 06:03:00;;;;;;;28.45;10.50;;;;;;;;;;6153606;22;20082;-77
2023/01/21 06:05:26;;;;;;;29.13;10.25;;;;;;;;;;6167472;23;20020;-77
2023/01/21 06:07:54;;;;;;;34.65;11.40;;;;;;;;;;6166794;23;20024;-76
2023/01/21 06:10:20;;;;;;;31.48;11.40;;;;;;;;;;6168332;23;20048;-77
2023/01/21 06:12:50;;;;;;;29.27;11.48;;;;;;;;;;6161091;23;20151;-78
2023/01/21 06:15:18;;;;;;;35.35;10.98;;;;;;;;;;6186429;22;20935;-76
2023/01/21 06:17:45;;;;;;;33.17;10.65;;;;;;;;;;6165595;23;20032;-75
2023/01/21 06:20:12;;;;;;;33.47;11.65;;;;;;;;;;6169197;23;20024;-77
2023/01/21 06:22:39;;;;;;;31.25;11.75;;;;;;;;;;6164861;23;20024;-83
2023/01/21 06:25:09;;;;;;;30.27;10.82;;;;;;;;;;6144425;22;20047;-77
2023/01/21 06:27:37;;;;;;;37.30;11.68;;;;;;;;;;6168684;23;20047;-78
2023/01/21 06:30:04;;;;;;;34.35;11.93;;;;;;;;;;6191222;23;20030;-78
2023/01/21 06:32:33;;;;;;;32.22;10.70;;;;;;;;;;6167035;23;20119;-77
2023/01/21 06:35:00;;;;;;;;;;;;;;;;;;6152831;22;20024;-75
2023/01/21 06:37:26;;;;;;;27.80;10.63;;;;;;;;;;6156494;23;20067;-79
2023/01/21 06:39:53;;;;;;;30.23;11.15;;;;;;;;;;6166996;23;20071;-78
2023/01/21 06:42:20;;;;;;;35.97;12.57;;;;;;;;;;6157314;23;20025;-75
2023/01/21 06:44:50;;;;;;;32.92;12.20;;;;;;;;;;6157248;23;20023;-75
2023/01/21 06:47:17;;;;;;;33.05;12.23;;;;;;;;;;6162707;22;20028;-76
2023/01/21 06:49:45;;;;;;;33.88;12.57;;;;;;;;;;6165244;23;20024;-75
2023/01/21 06:52:12;;;;;;;38.53;11.98;;;;;;;;;;6158209;23;20024;-77
2023/01/21 06:54:38;;;;;;;34.85;11.57;;;;;;;;;;6159997;23;20025;-75
2023/01/21 06:57:05;;;;;;;42.63;12.48;;;;;;;;;;6158798;23;20028;-74
2023/01/21 06:59:32;;;;;;;34.85;12.73;;;;;;;;;;6165158;23;20040;-78
2023/01/21 07:01:59;;;;;;;37.13;12.45;;;;;;;;;;6167977;23;20029;-80
2023/01/21 07:04:26;;;;;;;41.55;13.50;;;;;;;;;;6147219;23;20131;-78
2023/01/21 07:06:55;;;;;;;33.55;11.57;;;;;;;;;;6166222;23;20020;-77
2023/01/21 07:09:22;;;;;;;35.90;12.25;;;;;;;;;;6158066;23;20020;-79
2023/01/21 07:11:49;;;;;;;35.70;12.80;;;;;;;;;;6154173;23;20048;-76
2023/01/21 07:14:16;;;;;;;34.10;12.07;;;;;;;;;;6163369;23;20056;-81
2023/01/21 07:16:43;;;;;;;34.92;11.75;;;;;;;;;;6172646;23;20063;-81
2023/01/21 07:19:10;;;;;;;34.53;12.57;;;;;;;;;;6158517;23;20035;-77
2023/01/21 07:21:40;;;;;;;38.22;12.95;;;;;;;;;;6165645;23;20020;-75
2023/01/21 07:24:08;;;;;;;36.00;12.88;;;;;;;;;;6137151;23;20067;-77
2023/01/21 07:26:36;;;;;;;;;;;;;;;;;;6190880;23;20047;-75
2023/01/21 07:29:04;;;;;;;37.88;11.43;;;;;;;;;;6156511;23;19920;-73
2023/01/21 07:31:31;;;;;;;36.28;12.55;;;;;;;;;;6166233;23;20028;-72
2023/01/21 07:33:57;;;;;;;43.15;13.70;;;;;;;;;;6137251;23;20020;-74
2023/01/21 07:36:25;;;;;;;38.03;12.55;;;;;;;;;;6165477;23;20024;-75
2023/01/21 07:38:52;;;;;;;38.85;13.40;;;;;;;;;;6163278;23;20028;-76
2023/01/21 07:41:22;;;;;;;43.08;12.68;;;;;;;;;;6177986;23;20052;-76
2023/01/21 07:43:49;;;;;;;37.97;13.23;;;;;;;;;;6161432;23;20036;-72
2023/01/21 07:46:16;;;;;;;42.67;13.65;;;;;;;;;;6166094;23;20032;-76
2023/01/21 07:48:42;;;;;;;45.85;14.70;;;;;;;;;;6191365;23;20028;-76
2023/01/21 07:51:16;;;;;;;36.03;12.15;;;;;;;;;;6164366;23;20024;-72
2023/01/21 07:53:43;;;;;;;40.03;12.93;;;;;;;;;;6164004;23;20035;-72
2023/01/21 07:56:10;;;;;;;41.78;13.20;;;;;;;;;;6167163;23;20027;-74
2023/01/21 07:58:40;;;;;;;45.25;14.07;;;;;;;;;;6189903;23;20115;-76
2023/01/21 08:01:08;;;;;;;40.65;12.98;;;;;;;;;;6145668;22;20239;-72
2023/01/21 08:03:34;;;;;;;38.75;13.02;;;;;;;;;;6156768;23;20029;-77
2023/01/21 08:06:01;;;;;;;41.58;14.02;;;;;;;;;;6167057;23;20025;-78
2023/01/21 08:08:28;;;;;;;35.63;12.57;;;;;;;;;;6165371;23;20128;-71
2023/01/21 08:10:55;;;;;;;37.55;12.18;;;;;;;;;;6163311;23;20029;-75
2023/01/21 08:13:22;;;;;;;37.78;12.80;;;;;;;;;;6178307;23;20024;-77
2023/01/21 08:15:51;;;;;;;37.92;13.75;;;;;;;;;;6167493;23;20028;-74
2023/01/21 08:18:18;;;;;;;38.08;11.80;;;;;;;;;;6164807;23;20080;-74
2023/01/21 08:20:51;;;;;;;40.53;13.27;;;;;;;;;;6177773;23;20028;-76
2023/01/21 08:23:18;;;;;;;39.08;13.52;;;;;;;;;;6154067;22;20028;-76
2023/01/21 08:25:45;;;;;;;40.08;14.05;;;;;;;;;;6165073;23;20021;-72
2023/01/21 08:28:13;;;;;;;37.40;11.63;;;;;;;;;;6165732;23;20024;-75
2023/01/21 08:30:39;;;;;;;40.70;13.07;;;;;;;;;;6158526;23;20024;-76
2023/01/21 08:33:08;;;;;;;43.08;13.13;;;;;;;;;;6149804;23;20312;-74
2023/01/21 08:35:34;;;;;;;37.45;13.00;;;;;;;;;;6150078;23;20024;-75
2023/01/21 08:38:02;;;;;;;39.95;13.23;;;;;;;;;;6166644;23;20024;-74
2023/01/21 08:40:28;;;;;;;39.67;12.77;;;;;;;;;;6164906;23;20059;-74
2023/01/21 08:42:58;;;;;;;39.45;12.40;;;;;;;;;;6163582;22;20024;-79
2023/01/21 08:45:25;;;;;;;40.88;12.07;;;;;;;;;;6188670;23;20024;-77
2023/01/21 08:47:52;;;;;;;37.15;12.27;;;;;;;;;;6156898;23;20032;-76
2023/01/21 08:50:20;;;;;;;35.63;11.93;;;;;;;;;;6164939;23;20032;-78
2023/01/21 08:52:51;;;;;;;44.75;12.80;;;;;;;;;;6161624;23;20100;-76
2023/01/21 08:55:23;;;;;;;36.63;11.60;;;;;;;;;;6162880;23;20040;-73
2023/01/21 08:57:52;;;;;;;38.75;11.93;;;;;;;;;;6191311;23;20032;-75
2023/01/21 09:00:19;;;;;;;35.58;11.68;;;;;;;;;;6164531;23;20024;-74
2023/01/21 09:02:46;;;;;;;33.65;11.23;;;;;;;;;;6162383;23;20032;-74
2023/01/21 09:05:13;;;;;;;34.70;12.05;;;;;;;;;;6144221;23;20129;-72
2023/01/21 09:07:42;;;;;;;36.30;11.75;;;;;;;;;;6167095;23;20050;-74
2023/01/21 09:10:09;;;;;;;37.45;10.90;;;;;;;;;;6166096;23;20079;-75
2023/01/21 09:12:37;;;;;;;37.42;12.95;;;;;;;;;;6189963;23;20021;-75
2023/01/21 09:15:04;;;;;;;35.00;12.45;;;;;;;;;;6174005;23;20052;-72
2023/01/21 09:17:31;;;;;;;32.05;11.32;;;;;;;;;;6164890;23;20025;-72
2023/01/21 09:20:01;;;;;;;42.80;12.57;;;;;;;;;;6164092;23;20063;-71
2023/01/21 09:22:28;;;;;;;36.53;11.98;;;;;;;;;;6191647;23;20042;-77
2023/01/21 09:24:56;;;;;;;38.33;11.77;;;;;;;;;;6146539;23;20034;-74
2023/01/21 09:27:26;;;;;;;;;;;;;;;;;;6156728;23;20024;-74
2023/01/21 09:29:53;;;;;;;36.30;10.60;;;;;;;;;;6167236;23;19919;-77
2023/01/21 09:32:20;;;;;;;37.03;12.35;;;;;;;;;;6165710;23;20020;-77
2023/01/21 09:34:52;;;;;;;36.80;12.57;;;;;;;;;;6144835;23;20028;-77
2023/01/21 09:37:21;;;;;;;38.85;11.25;;;;;;;;;;6165641;22;20428;-72
2023/01/21 09:39:47;;;;;;;38.47;11.93;;;;;;;;;;6168316;23;20151;-72
2023/01/21 09:42:20;;;;;;;35.75;11.75;;;;;;;;;;6166109;23;20035;-77
2023/01/21 09:44:51;;;;;;;30.15;9.65;;;;;;;;;;6172386;23;20052;-73
2023/01/21 09:47:36;;;;;;;;;;;;;;;;;;;;;
2023/01/21 09:50:32;;;;;;;34.33;11.95;;;;;;;;;;6159600;23;20047;-77
2023/01/21 09:53:26;;;;;;;40.28;11.57;;;;;;;;;;6125382;22;20074;-74
2023/01/21 09:59:19;;;;;;;31.63;10.90;;;;;;;;;;5992250;23;20219;-73
2023/01/21 10:06:01;;;;;;;36.55;10.68;;;;;;;;;;6027143;23;20038;-78
2023/01/21 10:12:10;;;;;;;32.03;10.83;;;;;;;;;;5983430;23;20114;-74
2023/01/21 10:15:17;;;;;;;29.98;10.50;;;;;;;;;;5958911;23;20035;-74
2023/01/21 10:17:50;;;;;;;31.05;10.50;;;;;;;;;;5981663;23;20115;-75
2023/01/21 10:20:21;;;;;;;33.85;11.63;;;;;;;;;;6019688;23;20030;-75
2023/01/21 10:22:51;;;;;;;29.63;9.70;;;;;;;;;;6087419;23;20028;-73
2023/01/21 10:25:19;;;;;;;40.03;11.55;;;;;;;;;;6137466;22;20028;-78
2023/01/21 10:27:46;;;;;;;34.05;10.48;;;;;;;;;;6165160;23;20021;-78
2023/01/21 10:30:22;;;;;;;30.80;10.05;;;;;;;;;;6167580;23;20028;-75
2023/01/21 10:32:53;;;;;;;30.40;10.27;;;;;;;;;;6153154;23;20031;-73
2023/01/21 10:35:24;;;;;;;39.67;10.85;;;;;;;;;;6138986;23;20024;-78
2023/01/21 10:37:57;;;;;;;35.55;11.52;;;;;;;;;;6171038;23;20024;-74
2023/01/21 10:40:42;;;;;;;30.67;10.38;;;;;;;;;;6167615;23;20145;-78
2023/01/21 10:43:12;;;;;;;32.67;10.80;;;;;;;;;;6148471;22;20024;-72
2023/01/21 10:45:44;;;;;;;38.35;11.25;;;;;;;;;;6166903;23;20032;-76
2023/01/21 10:48:14;;;;;;;35.50;10.77;;;;;;;;;;6197223;23;20021;-74
2023/01/21 10:50:47;;;;;;;30.08;10.05;;;;;;;;;;6153161;23;20029;-81
2023/01/21 10:53:19;;;;;;;32.20;10.27;;;;;;;;;;6205913;23;20095;-78
2023/01/21 10:55:51;;;;;;;32.28;10.20;;;;;;;;;;6169976;23;20029;-75
2023/01/21 10:58:24;;;;;;;32.03;10.52;;;;;;;;;;6168135;23;20043;-76
2023/01/21 11:00:54;;;;;;;37.33;11.07;;;;;;;;;;6194213;23;20028;-80
2023/01/21 11:03:29;;;;;;;35.22;12.13;;;;;;;;;;6147275;22;20102;-75
2023/01/21 11:05:57;;;;;;;31.65;10.93;;;;;;;;;;6164083;23;20028;-78
2023/01/21 11:08:33;;;;;;;31.02;10.18;;;;;;;;;;6158171;23;20028;-74
2023/01/21 11:11:05;;;;;;;37.05;10.98;;;;;;;;;;6145714;22;20024;-80
2023/01/21 11:13:35;;;;;;;34.58;11.50;;;;;;;;;;6154162;23;20032;-77
2023/01/21 11:16:04;;;;;;;33.63;11.35;;;;;;;;;;6164183;23;20078;-80
2023/01/21 11:18:35;;;;;;;32.78;11.35;;;;;;;;;;6167405;23;20033;-78
2023/01/21 11:21:03;;;;;;;34.40;11.13;;;;;;;;;;6143940;22;20024;-76
2023/01/21 11:23:34;;;;;;;33.30;11.10;;;;;;;;;;6151922;23;20036;-75
2023/01/21 11:26:01;;;;;;;30.35;10.60;;;;;;;;;;6165190;23;20029;-79
2023/01/21 11:28:29;;;;;;;34.28;10.40;;;;;;;;;;6166072;23;20025;-76
2023/01/21 11:31:07;;;;;;;33.22;10.15;;;;;;;;;;6180599;23;20090;-72
2023/01/21 11:33:34;;;;;;;33.05;10.93;;;;;;;;;;6161096;23;20033;-72
2023/01/21 11:36:13;;;;;;;31.63;10.60;;;;;;;;;;6161590;23;20048;-74
2023/01/21 11:38:39;;;;;;;36.53;10.13;;;;;;;;;;6112701;23;20418;-74
2023/01/21 11:41:10;;;;;;;29.65;10.38;;;;;;;;;;6141372;23;20199;-76
2023/01/21 11:43:41;;;;;;;34.58;10.90;;;;;;;;;;6142727;23;20024;-73
2023/01/21 11:46:29;;;;;;;34.30;11.93;;;;;;;;;;6151067;23;20039;-77
2023/01/21 11:48:57;;;;;;;34.58;11.13;;;;;;;;;;6122011;23;20021;-75
2023/01/21 11:51:25;;;;;;;32.30;11.02;;;;;;;;;;6109105;23;20044;-76
2023/01/21 11:53:52;;;;;;;;;;;;;;;;;;6095189;23;20099;-72
2023/01/21 11:56:19;;;;;;;29.08;9.60;;;;;;;;;;6111974;23;19950;-73
2023/01/21 11:58:47;;;;;;;29.95;9.65;;;;;;;;;;6152682;23;20033;-73
2023/01/21 12:01:19;;;;;;;32.03;11.02;;;;;;;;;;6132030;23;20109;-75
2023/01/21 12:03:52;;;;;;;31.30;10.45;;;;;;;;;;6100562;23;20033;-71
2023/01/21 12:06:20;;;;;;;35.65;11.18;;;;;;;;;;6117172;23;20083;-74
2023/01/21 12:08:51;;;;;;;29.98;10.77;;;;;;;;;;6154198;23;20099;-74
2023/01/21 12:11:20;;;;;;;32.95;11.18;;;;;;;;;;6146462;22;20031;-72
2023/01/21 12:13:56;;;;;;;26.58;9.85;;;;;;;;;;6122795;23;20051;-71
2023/01/21 12:16:27;;;;;;;30.48;10.15;;;;;;;;;;6151711;23;20027;-73
2023/01/21 12:19:17;;;;;;;32.10;10.88;;;;;;;;;;6148298;23;20100;-72
2023/01/21 12:21:55;;;;;;;36.75;11.15;;;;;;;;;;6125264;23;20088;-72
2023/01/21 12:24:28;;;;;;;35.03;10.88;;;;;;;;;;6145327;23;20341;-73
2023/01/21 12:27:08;;;;;;;31.15;9.82;;;;;;;;;;6105739;23;20104;-72
2023/01/21 12:29:44;;;;;;;29.67;10.48;;;;;;;;;;6132031;23;20025;-70
2023/01/21 12:32:14;;;;;;;36.30;10.55;;;;;;;;;;6145535;23;20104;-73
2023/01/21 12:34:43;;;;;;;30.83;9.80;;;;;;;;;;6135619;23;20024;-73
2023/01/21 12:37:14;;;;;;;31.77;10.90;;;;;;;;;;6135207;23;20132;-72
2023/01/21 12:39:42;;;;;;;36.53;10.50;;;;;;;;;;6128772;23;20024;-72
2023/01/21 13:04:35;;;;;;;29.77;9.00;;;;;;;;;;5941340;23;20049;-74
2023/01/21 13:07:31;;;;;;;24.05;8.55;;;;;;;;;;5985178;23;20051;-74
2023/01/21 13:21:49;;;;;;;24.58;8.55;;;;;;;;;;4951631;28;20053;-76
2023/01/21 13:37:03;;;;;;;26.50;9.27;;;;;;;;;;4958674;27;20489;-72
2023/01/21 13:43:11;;;;;;;22.98;8.20;;;;;;;;;;4849995;29;20170;-75
2023/01/21 14:02:24;;;;;;;21.20;7.93;;;;;;;;;;6073410;23;20030;-73
2023/01/21 14:21:13;;;;;;;;;;;;;;;;;;;;;
2023/01/21 14:40:33;;;;;;;22.25;6.47;;;;;;;;;;5486330;22;16086739;-70
2023/01/21 14:43:43;;;;;;;31.83;9.55;;;;;;;;;;5912198;24;20032;-70
2023/01/21 15:04:39;;;;;;;30.88;10.07;;;;;;;;;;5924730;22;4594164;-69
2023/01/21 15:07:09;;;;;;;29.27;10.15;;;;;;;;;;5874134;23;20020;-69
2023/01/21 15:09:42;;;;;;;26.63;9.02;;;;;;;;;;6004950;23;20037;-70
2023/01/21 15:12:13;;;;;;;26.40;10.27;;;;;;;;;;6045490;23;20093;-68
2023/01/21 15:14:44;;;;;;;29.15;10.45;;;;;;;;;;6053762;23;20029;-71
2023/01/21 15:17:26;;;;;;;25.42;8.88;;;;;;;;;;5960730;23;20106;-69
2023/01/21 15:19:58;;;;;;;33.15;10.77;;;;;;;;;;6011012;23;20044;-68
2023/01/21 15:22:45;;;;;;;29.95;9.63;;;;;;;;;;6037099;23;20022;-71
2023/01/21 15:25:21;;;;;;;34.53;10.70;;;;;;;;;;6000377;23;20022;-70
2023/01/21 15:28:15;;;;;;;29.73;10.25;;;;;;;;;;6014361;23;20269;-71
2023/01/21 15:30:42;;;;;;;32.78;10.98;;;;;;;;;;5971689;23;20029;-71
2023/01/21 15:33:12;;;;;;;34.30;10.63;;;;;;;;;;6015168;23;20114;-69
2023/01/21 15:35:41;;;;;;;35.83;9.95;;;;;;;;;;6006123;23;20022;-69
2023/01/21 15:38:10;;;;;;;26.88;9.43;;;;;;;;;;6039759;23;20030;-71
2023/01/21 15:40:41;;;;;;;29.73;9.75;;;;;;;;;;6001518;23;20028;-68
2023/01/21 15:43:14;;;;;;;35.40;10.82;;;;;;;;;;6017221;23;20035;-71
2023/01/21 15:45:44;;;;;;;30.27;10.57;;;;;;;;;;6008434;23;20147;-68
2023/01/21 15:48:26;;;;;;;32.88;10.73;;;;;;;;;;5972623;23;20186;-69
2023/01/21 15:51:00;;;;;;;29.38;9.95;;;;;;;;;;6021290;23;20030;-68
2023/01/21 15:53:44;;;;;;;34.20;10.70;;;;;;;;;;6021899;23;20034;-68
2023/01/21 15:56:22;;;;;;;32.30;10.60;;;;;;;;;;5979309;23;20172;-68
2023/01/21 15:58:54;;;;;;;30.67;9.77;;;;;;;;;;5965062;23;20026;-69
2023/01/21 16:01:28;;;;;;;32.03;11.15;;;;;;;;;;6038600;23;20148;-71
2023/01/21 16:04:04;;;;;;;28.50;9.50;;;;;;;;;;5984244;23;20093;-70
2023/01/21 16:06:39;;;;;;;29.58;10.25;;;;;;;;;;5947422;23;20134;-72
2023/01/21 16:09:11;;;;;;;27.35;9.82;;;;;;;;;;5934605;23;20119;-70
2023/01/21 16:11:52;;;;;;;28.88;8.90;;;;;;;;;;5903394;23;20026;-68
2023/01/21 16:14:27;;;;;;;28.75;10.18;;;;;;;;;;6035193;23;20030;-70
2023/01/21 16:16:59;;;;;;;31.48;10.40;;;;;;;;;;5990080;23;20031;-69
2023/01/21 16:19:28;;;;;;;26.50;9.90;;;;;;;;;;5972728;23;20027;-70
2023/01/21 16:22:03;;;;;;;28.48;10.60;;;;;;;;;;5918318;24;20031;-69
2023/01/21 16:24:32;;;;;;;27.95;9.48;;;;;;;;;;5897917;23;20031;-68
2023/01/21 16:26:59;;;;;;;;;;;;;;;;;;5903705;23;20106;-71
2023/01/21 16:29:26;;;;;;;26.85;9.25;;;;;;;;;;5954661;23;19993;-73
2023/01/21 16:31:57;;;;;;;27.98;10.18;;;;;;;;;;5983631;23;20026;-72
2023/01/21 16:34:39;;;;;;;31.85;10.02;;;;;;;;;;5963577;23;20098;-71
2023/01/21 16:37:11;;;;;;;34.95;10.10;;;;;;;;;;5950771;23;20034;-70
2023/01/21 16:39:38;;;;;;;29.15;10.30;;;;;;;;;;5937808;23;20036;-71
2023/01/21 16:42:06;;;;;;;25.88;9.95;;;;;;;;;;5942135;23;20145;-73
2023/01/21 16:44:36;;;;;;;31.38;10.00;;;;;;;;;;5925891;23;20023;-71
2023/01/21 17:02:18;;;;;;;28.98;10.02;;;;;;;;;;5824756;24;20313;-72
2023/01/21 17:04:45;;;;;;;25.33;9.32;;;;;;;;;;5901587;23;20031;-71
2023/01/21 17:07:18;;;;;;;27.92;9.55;;;;;;;;;;5893274;23;20033;-72
2023/01/21 17:09:45;;;;;;;33.75;11.05;;;;;;;;;;5949101;23;20029;-71
2023/01/21 17:12:21;;;;;;;28.45;9.90;;;;;;;;;;5996043;23;20029;-70
2023/01/21 17:14:56;;;;;;;28.17;9.68;;;;;;;;;;6012496;23;20034;-71
2023/01/21 17:17:26;;;;;;;29.83;9.50;;;;;;;;;;5904623;23;20048;-70
2023/01/21 17:19:56;;;;;;;29.90;9.75;;;;;;;;;;5945466;23;20031;-71
2023/01/21 17:22:23;;;;;;;26.33;9.32;;;;;;;;;;6042199;23;20097;-68
2023/01/21 17:24:58;;;;;;;24.88;8.50;;;;;;;;;;6011567;23;20030;-70
2023/01/21 17:27:25;;;;;;;30.10;10.25;;;;;;;;;;5984843;23;20106;-69
2023/01/21 17:29:52;;;;;;;29.35;10.70;;;;;;;;;;6011343;23;20030;-72
2023/01/21 17:32:25;;;;;;;24.90;9.18;;;;;;;;;;6015376;23;20023;-69
2023/01/21 17:35:03;;;;;;;28.17;9.88;;;;;;;;;;6010070;23;20023;-69
2023/01/21 17:37:45;;;;;;;22.90;8.68;;;;;;;;;;6032909;23;20082;-69
2023/01/21 17:40:28;;;;;;;28.88;9.45;;;;;;;;;;6063435;23;20026;-69
2023/01/21 17:42:58;;;;;;;27.98;10.05;;;;;;;;;;6045424;23;20045;-70
2023/01/21 17:45:28;;;;;;;24.35;9.60;;;;;;;;;;6033505;23;20037;-72
2023/01/21 17:47:57;;;;;;;25.10;9.50;;;;;;;;;;5961641;23;20027;-70
2023/01/21 17:50:29;;;;;;;24.40;9.18;;;;;;;;;;5964769;23;20026;-73
2023/01/21 17:53:00;;;;;;;27.52;10.10;;;;;;;;;;5973064;23;20027;-69
2023/01/21 17:55:28;;;;;;;28.10;9.35;;;;;;;;;;5962752;23;20113;-71
2023/01/21 17:57:55;;;;;;;24.13;9.32;;;;;;;;;;5977145;23;20074;-72
2023/01/21 18:00:29;;;;;;;25.98;9.20;;;;;;;;;;5999492;23;20110;-73